sensor_id;sensor_type;location;lat;lon;timestamp;P1;durP1;ratioP1;P2;durP2;ratioP2
72569;SDS011;60594;50.204;8.844;2023-10-19T00:00:36;10.18;;;5.95;;
72569;SDS011;60594;50.204;8.844;2023-10-19T00:03:30;9.43;;;5.43;;
72569;SDS011;60594;50.204;8.844;2023-10-19T00:05:56;10.68;;;6.32;;
72569;SDS011;60594;50.204;8.844;2023-10-19T00:08:23;9.10;;;6.22;;
72569;SDS011;60594;50.204;8.844;2023-10-19T00:10:52;10.20;;;5.90;;
72569;SDS011;60594;50.204;8.844;2023-10-19T00:13:28;10.60;;;6.05;;
72569;SDS011;60594;50.204;8.844;2023-10-19T00:15:56;9.57;;;5.75;;
72569;SDS011;60594;50.204;8.844;2023-10-19T00:18:24;10.35;;;5.97;;
72569;SDS011;60594;50.204;8.844;2023-10-19T00:20:51;10.35;;;5.65;;
72569;SDS011;60594;50.204;8.844;2023-10-19T00:23:46;11.13;;;5.82;;
72569;SDS011;60594;50.204;8.844;2023-10-19T00:26:17;8.95;;;5.72;;
72569;SDS011;60594;50.204;8.844;2023-10-19T00:29:06;11.98;;;6.07;;
72569;SDS011;60594;50.204;8.844;2023-10-19T00:31:52;9.23;;;5.88;;
72569;SDS011;60594;50.204;8.844;2023-10-19T00:34:18;10.32;;;5.80;;
72569;SDS011;60594;50.204;8.844;2023-10-19T00:36:47;12.07;;;6.32;;
72569;SDS011;60594;50.204;8.844;2023-10-19T00:39:14;10.35;;;5.75;;
72569;SDS011;60594;50.204;8.844;2023-10-19T00:41:47;9.50;;;5.72;;
72569;SDS011;60594;50.204;8.844;2023-10-19T00:44:13;9.82;;;6.40;;
72569;SDS011;60594;50.204;8.844;2023-10-19T00:46:49;9.45;;;5.78;;
72569;SDS011;60594;50.204;8.844;2023-10-19T00:49:26;10.70;;;5.85;;
72569;SDS011;60594;50.204;8.844;2023-10-19T00:51:54;9.88;;;5.95;;
72569;SDS011;60594;50.204;8.844;2023-10-19T00:54:34;10.43;;;5.90;;
72569;SDS011;60594;50.204;8.844;2023-10-19T00:57:03;10.38;;;5.80;;
72569;SDS011;60594;50.204;8.844;2023-10-19T00:59:37;8.95;;;5.40;;
72569;SDS011;60594;50.204;8.844;2023-10-19T01:02:14;10.55;;;5.68;;
72569;SDS011;60594;50.204;8.844;2023-10-19T01:04:45;8.70;;;5.65;;
72569;SDS011;60594;50.204;8.844;2023-10-19T01:07:27;9.90;;;6.60;;
72569;SDS011;60594;50.204;8.844;2023-10-19T01:09:56;10.27;;;5.78;;
72569;SDS011;60594;50.204;8.844;2023-10-19T01:12:26;10.38;;;6.05;;
72569;SDS011;60594;50.204;8.844;2023-10-19T01:15:02;12.38;;;6.40;;
72569;SDS011;60594;50.204;8.844;2023-10-19T01:17:56;8.80;;;5.20;;
72569;SDS011;60594;50.204;8.844;2023-10-19T01:20:25;11.23;;;6.53;;
72569;SDS011;60594;50.204;8.844;2023-10-19T01:23:29;10.90;;;6.45;;
72569;SDS011;60594;50.204;8.844;2023-10-19T01:25:55;9.95;;;5.85;;
72569;SDS011;60594;50.204;8.844;2023-10-19T01:28:27;11.13;;;5.93;;
72569;SDS011;60594;50.204;8.844;2023-10-19T01:31:15;11.27;;;6.10;;
72569;SDS011;60594;50.204;8.844;2023-10-19T01:33:43;10.70;;;6.25;;
72569;SDS011;60594;50.204;8.844;2023-10-19T01:36:10;12.98;;;6.88;;
72569;SDS011;60594;50.204;8.844;2023-10-19T01:38:50;9.88;;;6.30;;
72569;SDS011;60594;50.204;8.844;2023-10-19T01:41:21;10.00;;;6.20;;
72569;SDS011;60594;50.204;8.844;2023-10-19T01:43:50;9.65;;;5.90;;
72569;SDS011;60594;50.204;8.844;2023-10-19T01:46:20;11.27;;;5.88;;
72569;SDS011;60594;50.204;8.844;2023-10-19T01:49:00;12.18;;;7.15;;
72569;SDS011;60594;50.204;8.844;2023-10-19T01:51:32;12.35;;;6.50;;
72569;SDS011;60594;50.204;8.844;2023-10-19T01:54:04;11.45;;;6.38;;
72569;SDS011;60594;50.204;8.844;2023-10-19T01:59:03;10.43;;;5.72;;
72569;SDS011;60594;50.204;8.844;2023-10-19T02:01:30;10.20;;;6.07;;
72569;SDS011;60594;50.204;8.844;2023-10-19T02:03:59;10.25;;;6.38;;
72569;SDS011;60594;50.204;8.844;2023-10-19T02:06:27;12.02;;;6.68;;
72569;SDS011;60594;50.204;8.844;2023-10-19T02:11:40;10.98;;;7.10;;
72569;SDS011;60594;50.204;8.844;2023-10-19T02:14:12;12.27;;;7.15;;
72569;SDS011;60594;50.204;8.844;2023-10-19T02:16:42;11.40;;;6.25;;
72569;SDS011;60594;50.204;8.844;2023-10-19T02:19:10;11.43;;;6.50;;
72569;SDS011;60594;50.204;8.844;2023-10-19T02:21:36;11.90;;;6.30;;
72569;SDS011;60594;50.204;8.844;2023-10-19T02:24:07;9.50;;;5.75;;
72569;SDS011;60594;50.204;8.844;2023-10-19T02:26:34;10.90;;;6.50;;
72569;SDS011;60594;50.204;8.844;2023-10-19T02:29:03;14.40;;;7.45;;
72569;SDS011;60594;50.204;8.844;2023-10-19T02:31:34;11.38;;;6.85;;
72569;SDS011;60594;50.204;8.844;2023-10-19T02:34:04;11.20;;;6.93;;
72569;SDS011;60594;50.204;8.844;2023-10-19T02:36:31;10.20;;;6.13;;
72569;SDS011;60594;50.204;8.844;2023-10-19T02:39:02;11.40;;;6.85;;
72569;SDS011;60594;50.204;8.844;2023-10-19T02:41:34;11.27;;;7.35;;
72569;SDS011;60594;50.204;8.844;2023-10-19T02:44:08;15.38;;;7.40;;
72569;SDS011;60594;50.204;8.844;2023-10-19T02:46:36;12.25;;;6.97;;
72569;SDS011;60594;50.204;8.844;2023-10-19T02:49:05;13.50;;;6.93;;
72569;SDS011;60594;50.204;8.844;2023-10-19T02:51:40;11.73;;;6.57;;
72569;SDS011;60594;50.204;8.844;2023-10-19T02:54:11;12.18;;;7.03;;
72569;SDS011;60594;50.204;8.844;2023-10-19T02:56:46;11.13;;;6.90;;
72569;SDS011;60594;50.204;8.844;2023-10-19T02:59:16;12.43;;;7.93;;
72569;SDS011;60594;50.204;8.844;2023-10-19T03:01:48;12.80;;;6.88;;
72569;SDS011;60594;50.204;8.844;2023-10-19T03:04:21;12.93;;;6.68;;
72569;SDS011;60594;50.204;8.844;2023-10-19T03:06:47;12.73;;;7.50;;
72569;SDS011;60594;50.204;8.844;2023-10-19T03:09:14;12.70;;;6.93;;
72569;SDS011;60594;50.204;8.844;2023-10-19T03:11:49;13.30;;;7.57;;
72569;SDS011;60594;50.204;8.844;2023-10-19T03:14:19;13.20;;;7.07;;
72569;SDS011;60594;50.204;8.844;2023-10-19T03:16:45;13.05;;;7.60;;
72569;SDS011;60594;50.204;8.844;2023-10-19T03:19:13;11.13;;;7.53;;
72569;SDS011;60594;50.204;8.844;2023-10-19T03:21:39;12.05;;;7.10;;
72569;SDS011;60594;50.204;8.844;2023-10-19T03:24:10;12.20;;;7.53;;
72569;SDS011;60594;50.204;8.844;2023-10-19T03:26:49;12.88;;;7.40;;
72569;SDS011;60594;50.204;8.844;2023-10-19T03:29:16;12.65;;;7.55;;
72569;SDS011;60594;50.204;8.844;2023-10-19T03:31:49;12.27;;;6.68;;
72569;SDS011;60594;50.204;8.844;2023-10-19T03:34:18;12.70;;;7.18;;
72569;SDS011;60594;50.204;8.844;2023-10-19T03:36:44;12.38;;;7.43;;
72569;SDS011;60594;50.204;8.844;2023-10-19T03:39:11;12.68;;;7.13;;
72569;SDS011;60594;50.204;8.844;2023-10-19T03:41:40;17.10;;;7.97;;
72569;SDS011;60594;50.204;8.844;2023-10-19T03:44:11;13.90;;;7.35;;
72569;SDS011;60594;50.204;8.844;2023-10-19T03:46:45;12.27;;;7.45;;
72569;SDS011;60594;50.204;8.844;2023-10-19T03:49:22;11.80;;;7.10;;
72569;SDS011;60594;50.204;8.844;2023-10-19T03:52:02;12.45;;;7.43;;
72569;SDS011;60594;50.204;8.844;2023-10-19T03:54:31;13.30;;;7.38;;
72569;SDS011;60594;50.204;8.844;2023-10-19T03:56:59;13.35;;;7.75;;
72569;SDS011;60594;50.204;8.844;2023-10-19T03:59:32;13.70;;;7.55;;
72569;SDS011;60594;50.204;8.844;2023-10-19T04:02:00;11.95;;;7.20;;
72569;SDS011;60594;50.204;8.844;2023-10-19T04:04:29;13.20;;;8.02;;
72569;SDS011;60594;50.204;8.844;2023-10-19T04:06:55;12.35;;;7.03;;
72569;SDS011;60594;50.204;8.844;2023-10-19T04:09:25;13.07;;;8.20;;
72569;SDS011;60594;50.204;8.844;2023-10-19T04:11:55;11.90;;;7.22;;
72569;SDS011;60594;50.204;8.844;2023-10-19T04:14:22;12.60;;;7.93;;
72569;SDS011;60594;50.204;8.844;2023-10-19T04:16:49;13.50;;;8.15;;
72569;SDS011;60594;50.204;8.844;2023-10-19T04:19:16;12.70;;;6.95;;
72569;SDS011;60594;50.204;8.844;2023-10-19T04:21:42;12.48;;;6.88;;
72569;SDS011;60594;50.204;8.844;2023-10-19T04:24:13;11.98;;;7.30;;
72569;SDS011;60594;50.204;8.844;2023-10-19T04:26:40;13.82;;;7.57;;
72569;SDS011;60594;50.204;8.844;2023-10-19T04:29:08;20.75;;;10.25;;
72569;SDS011;60594;50.204;8.844;2023-10-19T04:31:39;15.25;;;8.77;;
72569;SDS011;60594;50.204;8.844;2023-10-19T04:34:15;17.60;;;8.43;;
72569;SDS011;60594;50.204;8.844;2023-10-19T04:36:52;14.95;;;8.23;;
72569;SDS011;60594;50.204;8.844;2023-10-19T04:39:19;13.18;;;7.72;;
72569;SDS011;60594;50.204;8.844;2023-10-19T04:41:45;14.88;;;8.13;;
72569;SDS011;60594;50.204;8.844;2023-10-19T04:44:14;14.57;;;8.63;;
72569;SDS011;60594;50.204;8.844;2023-10-19T04:46:42;13.98;;;7.72;;
72569;SDS011;60594;50.204;8.844;2023-10-19T04:49:08;16.42;;;7.97;;
72569;SDS011;60594;50.204;8.844;2023-10-19T04:51:35;12.85;;;8.15;;
72569;SDS011;60594;50.204;8.844;2023-10-19T04:54:05;15.25;;;8.38;;
72569;SDS011;60594;50.204;8.844;2023-10-19T04:56:34;15.20;;;8.25;;
72569;SDS011;60594;50.204;8.844;2023-10-19T04:59:04;14.02;;;8.38;;
72569;SDS011;60594;50.204;8.844;2023-10-19T05:01:31;16.95;;;8.65;;
72569;SDS011;60594;50.204;8.844;2023-10-19T05:04:00;17.00;;;8.95;;
72569;SDS011;60594;50.204;8.844;2023-10-19T05:06:26;16.92;;;9.00;;
72569;SDS011;60594;50.204;8.844;2023-10-19T05:08:53;16.85;;;9.75;;
72569;SDS011;60594;50.204;8.844;2023-10-19T05:11:19;17.50;;;8.90;;
72569;SDS011;60594;50.204;8.844;2023-10-19T05:13:46;17.23;;;9.40;;
72569;SDS011;60594;50.204;8.844;2023-10-19T05:16:12;18.52;;;10.30;;
72569;SDS011;60594;50.204;8.844;2023-10-19T05:18:39;15.80;;;8.95;;
72569;SDS011;60594;50.204;8.844;2023-10-19T05:21:05;19.40;;;9.60;;
72569;SDS011;60594;50.204;8.844;2023-10-19T05:23:32;15.60;;;8.77;;
72569;SDS011;60594;50.204;8.844;2023-10-19T05:26:02;16.33;;;8.63;;
72569;SDS011;60594;50.204;8.844;2023-10-19T05:28:30;16.27;;;8.80;;
72569;SDS011;60594;50.204;8.844;2023-10-19T05:30:57;15.52;;;9.68;;
72569;SDS011;60594;50.204;8.844;2023-10-19T05:33:26;20.70;;;9.55;;
72569;SDS011;60594;50.204;8.844;2023-10-19T05:35:53;19.08;;;9.48;;
72569;SDS011;60594;50.204;8.844;2023-10-19T05:38:20;18.85;;;9.55;;
72569;SDS011;60594;50.204;8.844;2023-10-19T05:43:16;19.35;;;10.55;;
72569;SDS011;60594;50.204;8.844;2023-10-19T05:45:43;21.20;;;10.30;;
72569;SDS011;60594;50.204;8.844;2023-10-19T05:48:10;26.60;;;10.77;;
72569;SDS011;60594;50.204;8.844;2023-10-19T05:50:37;20.55;;;10.43;;
72569;SDS011;60594;50.204;8.844;2023-10-19T05:53:04;15.93;;;8.38;;
72569;SDS011;60594;50.204;8.844;2023-10-19T05:55:31;17.23;;;9.23;;
72569;SDS011;60594;50.204;8.844;2023-10-19T05:57:58;15.90;;;8.57;;
72569;SDS011;60594;50.204;8.844;2023-10-19T06:00:25;18.00;;;9.40;;
72569;SDS011;60594;50.204;8.844;2023-10-19T06:02:52;16.58;;;8.45;;
72569;SDS011;60594;50.204;8.844;2023-10-19T06:05:19;16.48;;;8.70;;
72569;SDS011;60594;50.204;8.844;2023-10-19T06:07:47;13.38;;;8.20;;
72569;SDS011;60594;50.204;8.844;2023-10-19T06:10:15;14.15;;;8.05;;
72569;SDS011;60594;50.204;8.844;2023-10-19T06:12:43;14.30;;;8.80;;
72569;SDS011;60594;50.204;8.844;2023-10-19T06:15:12;14.20;;;7.78;;
72569;SDS011;60594;50.204;8.844;2023-10-19T06:17:39;14.18;;;7.97;;
72569;SDS011;60594;50.204;8.844;2023-10-19T06:20:07;13.07;;;7.78;;
72569;SDS011;60594;50.204;8.844;2023-10-19T06:22:46;13.35;;;7.90;;
72569;SDS011;60594;50.204;8.844;2023-10-19T06:25:19;12.80;;;8.40;;
72569;SDS011;60594;50.204;8.844;2023-10-19T06:27:50;13.25;;;7.30;;
72569;SDS011;60594;50.204;8.844;2023-10-19T06:30:18;15.85;;;8.77;;
72569;SDS011;60594;50.204;8.844;2023-10-19T06:32:48;15.40;;;8.40;;
72569;SDS011;60594;50.204;8.844;2023-10-19T06:35:17;13.63;;;8.07;;
72569;SDS011;60594;50.204;8.844;2023-10-19T06:37:45;20.88;;;11.02;;
72569;SDS011;60594;50.204;8.844;2023-10-19T06:40:12;19.98;;;10.07;;
72569;SDS011;60594;50.204;8.844;2023-10-19T06:42:43;19.45;;;10.63;;
72569;SDS011;60594;50.204;8.844;2023-10-19T06:45:11;22.38;;;10.52;;
72569;SDS011;60594;50.204;8.844;2023-10-19T06:47:42;24.67;;;11.10;;
72569;SDS011;60594;50.204;8.844;2023-10-19T06:50:14;22.73;;;10.98;;
72569;SDS011;60594;50.204;8.844;2023-10-19T06:52:42;21.95;;;11.13;;
72569;SDS011;60594;50.204;8.844;2023-10-19T06:55:10;25.02;;;11.27;;
72569;SDS011;60594;50.204;8.844;2023-10-19T06:57:40;23.70;;;11.48;;
72569;SDS011;60594;50.204;8.844;2023-10-19T07:00:10;24.67;;;11.50;;
72569;SDS011;60594;50.204;8.844;2023-10-19T07:02:44;21.52;;;11.10;;
72569;SDS011;60594;50.204;8.844;2023-10-19T07:05:14;24.83;;;10.93;;
72569;SDS011;60594;50.204;8.844;2023-10-19T07:07:45;24.77;;;11.98;;
72569;SDS011;60594;50.204;8.844;2023-10-19T07:10:12;24.15;;;11.82;;
72569;SDS011;60594;50.204;8.844;2023-10-19T07:12:40;23.58;;;11.23;;
72569;SDS011;60594;50.204;8.844;2023-10-19T07:15:08;27.45;;;12.25;;
72569;SDS011;60594;50.204;8.844;2023-10-19T07:17:40;26.05;;;12.23;;
72569;SDS011;60594;50.204;8.844;2023-10-19T07:20:07;26.67;;;12.07;;
72569;SDS011;60594;50.204;8.844;2023-10-19T07:22:54;24.95;;;11.75;;
72569;SDS011;60594;50.204;8.844;2023-10-19T07:25:21;30.48;;;12.95;;
72569;SDS011;60594;50.204;8.844;2023-10-19T07:27:49;30.08;;;12.73;;
72569;SDS011;60594;50.204;8.844;2023-10-19T07:30:19;29.48;;;13.20;;
72569;SDS011;60594;50.204;8.844;2023-10-19T07:32:50;27.83;;;13.40;;
72569;SDS011;60594;50.204;8.844;2023-10-19T07:35:20;28.13;;;13.55;;
72569;SDS011;60594;50.204;8.844;2023-10-19T07:37:52;26.70;;;13.48;;
72569;SDS011;60594;50.204;8.844;2023-10-19T07:40:19;27.42;;;13.70;;
72569;SDS011;60594;50.204;8.844;2023-10-19T07:42:46;27.67;;;13.75;;
72569;SDS011;60594;50.204;8.844;2023-10-19T07:45:15;30.40;;;14.48;;
72569;SDS011;60594;50.204;8.844;2023-10-19T07:47:41;29.38;;;13.60;;
72569;SDS011;60594;50.204;8.844;2023-10-19T07:50:08;28.42;;;13.93;;
72569;SDS011;60594;50.204;8.844;2023-10-19T07:52:45;29.25;;;13.63;;
72569;SDS011;60594;50.204;8.844;2023-10-19T07:55:17;35.13;;;15.30;;
72569;SDS011;60594;50.204;8.844;2023-10-19T07:57:45;26.65;;;12.82;;
72569;SDS011;60594;50.204;8.844;2023-10-19T08:00:12;28.98;;;14.32;;
72569;SDS011;60594;50.204;8.844;2023-10-19T08:02:40;29.38;;;13.18;;
72569;SDS011;60594;50.204;8.844;2023-10-19T08:05:08;30.25;;;13.50;;
72569;SDS011;60594;50.204;8.844;2023-10-19T08:07:39;30.92;;;14.30;;
72569;SDS011;60594;50.204;8.844;2023-10-19T08:10:06;31.17;;;13.73;;
72569;SDS011;60594;50.204;8.844;2023-10-19T08:12:37;31.52;;;15.55;;
72569;SDS011;60594;50.204;8.844;2023-10-19T08:15:08;31.48;;;13.50;;
72569;SDS011;60594;50.204;8.844;2023-10-19T08:17:37;30.08;;;14.25;;
72569;SDS011;60594;50.204;8.844;2023-10-19T08:20:08;29.45;;;13.25;;
72569;SDS011;60594;50.204;8.844;2023-10-19T08:22:42;28.65;;;13.25;;
72569;SDS011;60594;50.204;8.844;2023-10-19T08:25:09;28.65;;;13.50;;
72569;SDS011;60594;50.204;8.844;2023-10-19T08:27:41;32.90;;;15.63;;
72569;SDS011;60594;50.204;8.844;2023-10-19T08:30:16;30.27;;;15.00;;
72569;SDS011;60594;50.204;8.844;2023-10-19T08:32:45;26.23;;;12.60;;
72569;SDS011;60594;50.204;8.844;2023-10-19T08:35:15;29.50;;;13.63;;
72569;SDS011;60594;50.204;8.844;2023-10-19T08:37:47;27.42;;;13.05;;
72569;SDS011;60594;50.204;8.844;2023-10-19T08:40:14;28.75;;;13.75;;
72569;SDS011;60594;50.204;8.844;2023-10-19T08:42:41;26.58;;;13.18;;
72569;SDS011;60594;50.204;8.844;2023-10-19T08:45:09;30.20;;;13.95;;
72569;SDS011;60594;50.204;8.844;2023-10-19T08:50:31;23.00;;;11.13;;
72569;SDS011;60594;50.204;8.844;2023-10-19T08:53:01;25.85;;;12.27;;
72569;SDS011;60594;50.204;8.844;2023-10-19T08:55:31;24.58;;;11.48;;
72569;SDS011;60594;50.204;8.844;2023-10-19T08:58:03;24.95;;;11.05;;
72569;SDS011;60594;50.204;8.844;2023-10-19T09:03:20;25.80;;;11.98;;
72569;SDS011;60594;50.204;8.844;2023-10-19T09:05:48;25.08;;;12.15;;
72569;SDS011;60594;50.204;8.844;2023-10-19T09:08:15;27.02;;;13.43;;
72569;SDS011;60594;50.204;8.844;2023-10-19T09:10:44;22.77;;;11.38;;
72569;SDS011;60594;50.204;8.844;2023-10-19T09:13:11;30.98;;;13.80;;
72569;SDS011;60594;50.204;8.844;2023-10-19T09:15:41;24.67;;;12.85;;
72569;SDS011;60594;50.204;8.844;2023-10-19T09:18:14;27.80;;;13.55;;
72569;SDS011;60594;50.204;8.844;2023-10-19T09:20:44;25.00;;;12.15;;
72569;SDS011;60594;50.204;8.844;2023-10-19T09:23:25;28.98;;;13.00;;
72569;SDS011;60594;50.204;8.844;2023-10-19T09:25:57;26.45;;;12.48;;
72569;SDS011;60594;50.204;8.844;2023-10-19T09:28:27;25.95;;;11.70;;
72569;SDS011;60594;50.204;8.844;2023-10-19T09:30:55;27.13;;;13.60;;
72569;SDS011;60594;50.204;8.844;2023-10-19T09:33:22;22.02;;;11.85;;
72569;SDS011;60594;50.204;8.844;2023-10-19T09:35:50;26.05;;;12.75;;
72569;SDS011;60594;50.204;8.844;2023-10-19T09:38:22;24.08;;;11.98;;
72569;SDS011;60594;50.204;8.844;2023-10-19T09:40:53;24.67;;;12.25;;
72569;SDS011;60594;50.204;8.844;2023-10-19T09:45:57;27.02;;;12.77;;
72569;SDS011;60594;50.204;8.844;2023-10-19T09:48:31;26.75;;;11.77;;
72569;SDS011;60594;50.204;8.844;2023-10-19T09:51:01;25.45;;;12.02;;
72569;SDS011;60594;50.204;8.844;2023-10-19T09:53:29;23.23;;;11.32;;
72569;SDS011;60594;50.204;8.844;2023-10-19T09:55:57;23.65;;;11.95;;
72569;SDS011;60594;50.204;8.844;2023-10-19T09:58:27;20.80;;;11.07;;
72569;SDS011;60594;50.204;8.844;2023-10-19T10:00:58;21.60;;;9.98;;
72569;SDS011;60594;50.204;8.844;2023-10-19T10:03:42;20.52;;;10.57;;
72569;SDS011;60594;50.204;8.844;2023-10-19T10:06:10;22.02;;;10.95;;
72569;SDS011;60594;50.204;8.844;2023-10-19T10:08:38;21.33;;;10.57;;
72569;SDS011;60594;50.204;8.844;2023-10-19T10:11:13;21.15;;;10.07;;
72569;SDS011;60594;50.204;8.844;2023-10-19T10:13:40;21.10;;;10.10;;
72569;SDS011;60594;50.204;8.844;2023-10-19T10:16:12;21.73;;;10.60;;
72569;SDS011;60594;50.204;8.844;2023-10-19T10:18:41;24.23;;;12.02;;
72569;SDS011;60594;50.204;8.844;2023-10-19T10:21:11;22.83;;;11.23;;
72569;SDS011;60594;50.204;8.844;2023-10-19T10:23:47;23.58;;;11.48;;
72569;SDS011;60594;50.204;8.844;2023-10-19T10:26:24;19.63;;;9.73;;
72569;SDS011;60594;50.204;8.844;2023-10-19T10:31:41;18.05;;;9.82;;
72569;SDS011;60594;50.204;8.844;2023-10-19T10:34:10;20.60;;;9.80;;
72569;SDS011;60594;50.204;8.844;2023-10-19T10:39:29;17.58;;;9.98;;
72569;SDS011;60594;50.204;8.844;2023-10-19T10:41:57;16.95;;;9.80;;
72569;SDS011;60594;50.204;8.844;2023-10-19T10:44:38;15.23;;;8.93;;
72569;SDS011;60594;50.204;8.844;2023-10-19T10:47:26;16.75;;;9.10;;
72569;SDS011;60594;50.204;8.844;2023-10-19T10:49:56;17.20;;;9.25;;
72569;SDS011;60594;50.204;8.844;2023-10-19T10:55:07;13.85;;;7.80;;
72569;SDS011;60594;50.204;8.844;2023-10-19T10:57:39;14.80;;;8.63;;
72569;SDS011;60594;50.204;8.844;2023-10-19T11:00:13;19.15;;;8.10;;
72569;SDS011;60594;50.204;8.844;2023-10-19T11:03:00;14.50;;;7.60;;
72569;SDS011;60594;50.204;8.844;2023-10-19T11:05:30;14.73;;;8.65;;
72569;SDS011;60594;50.204;8.844;2023-10-19T11:10:47;16.65;;;7.32;;
72569;SDS011;60594;50.204;8.844;2023-10-19T11:13:14;12.55;;;7.68;;
72569;SDS011;60594;50.204;8.844;2023-10-19T11:15:49;12.23;;;6.57;;
72569;SDS011;60594;50.204;8.844;2023-10-19T11:20:57;11.38;;;6.20;;
72569;SDS011;60594;50.204;8.844;2023-10-19T11:26:07;12.50;;;6.97;;
72569;SDS011;60594;50.204;8.844;2023-10-19T11:28:35;13.60;;;7.68;;
72569;SDS011;60594;50.204;8.844;2023-10-19T11:31:19;23.77;;;13.13;;
72569;SDS011;60594;50.204;8.844;2023-10-19T11:33:50;24.83;;;13.30;;
72569;SDS011;60594;50.204;8.844;2023-10-19T11:36:20;23.25;;;12.25;;
72569;SDS011;60594;50.204;8.844;2023-10-19T11:41:15;19.63;;;10.57;;
72569;SDS011;60594;50.204;8.844;2023-10-19T11:43:47;21.40;;;11.55;;
72569;SDS011;60594;50.204;8.844;2023-10-19T11:46:15;18.13;;;10.68;;
72569;SDS011;60594;50.204;8.844;2023-10-19T11:48:44;22.23;;;11.40;;
72569;SDS011;60594;50.204;8.844;2023-10-19T11:51:10;18.42;;;11.20;;
72569;SDS011;60594;50.204;8.844;2023-10-19T11:53:37;19.17;;;11.07;;
72569;SDS011;60594;50.204;8.844;2023-10-19T11:56:08;19.58;;;11.15;;
72569;SDS011;60594;50.204;8.844;2023-10-19T11:58:36;21.58;;;11.40;;
72569;SDS011;60594;50.204;8.844;2023-10-19T12:01:09;19.77;;;11.02;;
72569;SDS011;60594;50.204;8.844;2023-10-19T12:03:39;22.23;;;11.27;;
72569;SDS011;60594;50.204;8.844;2023-10-19T12:06:09;21.17;;;10.45;;
72569;SDS011;60594;50.204;8.844;2023-10-19T12:08:37;19.50;;;10.40;;
72569;SDS011;60594;50.204;8.844;2023-10-19T12:11:05;21.35;;;10.77;;
72569;SDS011;60594;50.204;8.844;2023-10-19T12:13:41;19.27;;;10.57;;
72569;SDS011;60594;50.204;8.844;2023-10-19T12:16:13;17.58;;;9.93;;
72569;SDS011;60594;50.204;8.844;2023-10-19T12:18:44;17.45;;;10.15;;
72569;SDS011;60594;50.204;8.844;2023-10-19T12:23:38;17.00;;;9.07;;
72569;SDS011;60594;50.204;8.844;2023-10-19T12:26:08;20.45;;;10.32;;
72569;SDS011;60594;50.204;8.844;2023-10-19T12:28:38;19.00;;;9.57;;
72569;SDS011;60594;50.204;8.844;2023-10-19T12:31:07;18.08;;;10.68;;
72569;SDS011;60594;50.204;8.844;2023-10-19T12:33:37;19.15;;;10.90;;
72569;SDS011;60594;50.204;8.844;2023-10-19T12:36:05;22.75;;;11.30;;
72569;SDS011;60594;50.204;8.844;2023-10-19T12:38:57;19.50;;;10.55;;
72569;SDS011;60594;50.204;8.844;2023-10-19T12:41:26;20.98;;;11.60;;
72569;SDS011;60594;50.204;8.844;2023-10-19T12:43:53;22.83;;;11.90;;
72569;SDS011;60594;50.204;8.844;2023-10-19T12:46:34;23.08;;;12.18;;
72569;SDS011;60594;50.204;8.844;2023-10-19T12:49:06;22.80;;;11.73;;
72569;SDS011;60594;50.204;8.844;2023-10-19T12:51:40;22.38;;;11.80;;
72569;SDS011;60594;50.204;8.844;2023-10-19T12:54:08;20.65;;;12.00;;
72569;SDS011;60594;50.204;8.844;2023-10-19T12:56:38;24.30;;;12.32;;
72569;SDS011;60594;50.204;8.844;2023-10-19T12:59:25;23.27;;;13.48;;
72569;SDS011;60594;50.204;8.844;2023-10-19T13:01:53;21.70;;;13.10;;
72569;SDS011;60594;50.204;8.844;2023-10-19T13:04:24;22.85;;;13.73;;
72569;SDS011;60594;50.204;8.844;2023-10-19T13:06:51;24.27;;;13.63;;
72569;SDS011;60594;50.204;8.844;2023-10-19T13:09:24;25.90;;;12.48;;
72569;SDS011;60594;50.204;8.844;2023-10-19T13:11:57;25.35;;;13.85;;
72569;SDS011;60594;50.204;8.844;2023-10-19T13:14:25;28.40;;;14.60;;
72569;SDS011;60594;50.204;8.844;2023-10-19T13:16:52;33.45;;;15.63;;
72569;SDS011;60594;50.204;8.844;2023-10-19T13:19:21;29.77;;;14.48;;
72569;SDS011;60594;50.204;8.844;2023-10-19T13:21:51;31.55;;;15.05;;
72569;SDS011;60594;50.204;8.844;2023-10-19T13:24:18;28.10;;;15.25;;
72569;SDS011;60594;50.204;8.844;2023-10-19T13:26:52;27.92;;;15.18;;
72569;SDS011;60594;50.204;8.844;2023-10-19T13:29:18;27.23;;;15.05;;
72569;SDS011;60594;50.204;8.844;2023-10-19T13:31:46;26.83;;;14.77;;
72569;SDS011;60594;50.204;8.844;2023-10-19T13:34:16;31.13;;;15.40;;
72569;SDS011;60594;50.204;8.844;2023-10-19T13:36:43;28.67;;;14.93;;
72569;SDS011;60594;50.204;8.844;2023-10-19T13:39:12;29.83;;;14.75;;
72569;SDS011;60594;50.204;8.844;2023-10-19T13:41:45;29.83;;;15.38;;
72569;SDS011;60594;50.204;8.844;2023-10-19T13:44:11;26.67;;;14.40;;
72569;SDS011;60594;50.204;8.844;2023-10-19T13:49:05;28.52;;;14.13;;
72569;SDS011;60594;50.204;8.844;2023-10-19T13:51:32;28.50;;;14.18;;
72569;SDS011;60594;50.204;8.844;2023-10-19T13:53:59;29.10;;;14.05;;
72569;SDS011;60594;50.204;8.844;2023-10-19T13:56:26;30.50;;;14.75;;
72569;SDS011;60594;50.204;8.844;2023-10-19T13:58:52;31.42;;;15.02;;
72569;SDS011;60594;50.204;8.844;2023-10-19T14:01:19;26.85;;;14.90;;
72569;SDS011;60594;50.204;8.844;2023-10-19T14:03:51;32.42;;;15.63;;
72569;SDS011;60594;50.204;8.844;2023-10-19T14:06:21;30.58;;;17.45;;
72569;SDS011;60594;50.204;8.844;2023-10-19T14:08:48;32.15;;;15.05;;
72569;SDS011;60594;50.204;8.844;2023-10-19T14:11:15;31.98;;;15.43;;
72569;SDS011;60594;50.204;8.844;2023-10-19T14:13:42;35.45;;;16.63;;
72569;SDS011;60594;50.204;8.844;2023-10-19T14:16:09;31.27;;;15.80;;
72569;SDS011;60594;50.204;8.844;2023-10-19T14:18:36;32.90;;;16.30;;
72569;SDS011;60594;50.204;8.844;2023-10-19T14:21:10;32.38;;;15.48;;
72569;SDS011;60594;50.204;8.844;2023-10-19T14:23:40;30.45;;;16.20;;
72569;SDS011;60594;50.204;8.844;2023-10-19T14:26:09;30.35;;;14.05;;
72569;SDS011;60594;50.204;8.844;2023-10-19T14:28:39;33.08;;;15.80;;
72569;SDS011;60594;50.204;8.844;2023-10-19T14:31:07;30.17;;;15.63;;
72569;SDS011;60594;50.204;8.844;2023-10-19T14:38:30;28.10;;;13.10;;
72569;SDS011;60594;50.204;8.844;2023-10-19T14:40:57;28.52;;;14.65;;
72569;SDS011;60594;50.204;8.844;2023-10-19T14:43:25;28.10;;;14.70;;
72569;SDS011;60594;50.204;8.844;2023-10-19T14:45:52;22.88;;;11.80;;
72569;SDS011;60594;50.204;8.844;2023-10-19T14:48:19;27.50;;;13.27;;
72569;SDS011;60594;50.204;8.844;2023-10-19T14:50:50;24.58;;;12.10;;
72569;SDS011;60594;50.204;8.844;2023-10-19T14:53:17;21.85;;;11.38;;
72569;SDS011;60594;50.204;8.844;2023-10-19T14:55:45;22.27;;;11.80;;
72569;SDS011;60594;50.204;8.844;2023-10-19T14:58:12;23.10;;;11.50;;
72569;SDS011;60594;50.204;8.844;2023-10-19T15:00:39;21.95;;;11.90;;
72569;SDS011;60594;50.204;8.844;2023-10-19T15:03:09;21.25;;;10.68;;
72569;SDS011;60594;50.204;8.844;2023-10-19T15:05:39;22.08;;;11.45;;
72569;SDS011;60594;50.204;8.844;2023-10-19T15:08:08;21.92;;;12.43;;
72569;SDS011;60594;50.204;8.844;2023-10-19T15:10:40;21.77;;;11.55;;
72569;SDS011;60594;50.204;8.844;2023-10-19T15:13:08;17.60;;;10.10;;
72569;SDS011;60594;50.204;8.844;2023-10-19T15:15:34;17.33;;;9.13;;
72569;SDS011;60594;50.204;8.844;2023-10-19T15:20:34;15.82;;;8.82;;
72569;SDS011;60594;50.204;8.844;2023-10-19T15:25:30;18.45;;;11.52;;
72569;SDS011;60594;50.204;8.844;2023-10-19T15:27:57;22.95;;;14.00;;
72569;SDS011;60594;50.204;8.844;2023-10-19T15:30:25;25.05;;;15.30;;
72569;SDS011;60594;50.204;8.844;2023-10-19T15:32:52;15.05;;;8.32;;
72569;SDS011;60594;50.204;8.844;2023-10-19T15:35:19;15.70;;;8.75;;